»·PEaware :: SWA574 KLAX-KDAL

SWA574 :: KLAX-KDAL

FLIGHT INFORMATION

Flight Status: Arrived
Operator:
Southwest Airlines
More flights by this operator :: More flights under this callsign
Pilot: Drew L. (13237)
Aircraft: BOEING 737-800
(B738)
More flights by this aircraft type
Origin: KLAX Los Angeles Intl
United States
Destination: KDAL Dallas Love
United States
More flights between these airports :: More routes between these airports
Route: DOTSS2 CLEEE PKE J74 SJN TXO TURKI JFRYE3
File this flight plan on PilotEdge
Remarks: PBN / A1B1C1D1S1S2 DOF / 180703 REG / N806SB EET / KZAB0036 KZFW0147 OPR / SWA PER / C RMK / TCAS SIMBRIEF
Altitude:
(Current/Filed)
31,000ft
Speed:
(Current/Filed)
475kts
Departed: 02-Jul-18 06:31 PM
Arrived: 02-Jul-18 09:18 PM
Distance/Time
Traveled:
1080nm/2:47
Distance/Time
To Go:
Arrived

Flight Plot

Page will automatically refresh every two minutes.

Flight plan parsing failed; only flown route is shown


Map Options




Map Legend


Flown Route
Filed Route
Departure Airport
Arrival Airport
Navaid (VOR, NDB)
Fix

Horizontal Profiles

Position Reports

Time Latitude Longitude Heading Altitude Ground
Speed
02-Jul-18 18:08 33.947689 -118.400584 239 134ft 0kts
02-Jul-18 18:09 33.947689 -118.400584 239 134ft 0kts
02-Jul-18 18:10 33.947689 -118.400584 239 134ft 0kts
02-Jul-18 18:11 33.947689 -118.400584 239 134ft 0kts
02-Jul-18 18:12 33.947689 -118.400584 239 134ft 0kts
02-Jul-18 18:13 33.947689 -118.400584 239 134ft 0kts
02-Jul-18 18:14 33.947689 -118.400584 239 134ft 0kts
02-Jul-18 18:15 33.947689 -118.400584 239 134ft 0kts
02-Jul-18 18:16 33.947689 -118.400584 239 134ft 0kts
02-Jul-18 18:17 33.947689 -118.400584 239 134ft 0kts
02-Jul-18 18:18 33.947689 -118.400584 239 134ft 0kts
02-Jul-18 18:19 33.947689 -118.400584 239 134ft 0kts
02-Jul-18 18:20 33.947689 -118.400584 239 134ft 0kts
02-Jul-18 18:21 33.947689 -118.400584 239 134ft 0kts
02-Jul-18 18:22 33.947689 -118.400584 239 134ft 0kts
02-Jul-18 18:23 33.947689 -118.400584 239 134ft 0kts
02-Jul-18 18:24 33.947781 -118.400310 281 135ft 2kts
02-Jul-18 18:25 33.947490 -118.400096 6 135ft 0kts
02-Jul-18 18:26 33.947490 -118.400096 6 134ft 0kts
02-Jul-18 18:27 33.947490 -118.400096 6 134ft 0kts
02-Jul-18 18:28 33.948225 -118.400103 339 134ft 0kts
02-Jul-18 18:29 33.949188 -118.400418 68 134ft 9kts
02-Jul-18 18:30 33.949275 -118.399863 83 134ft 1kts
02-Jul-18 18:31 33.950334 -118.400325 263 134ft 28kts
02-Jul-18 18:32 33.946499 -118.441250 263 788ft 182kts
02-Jul-18 18:33 33.941853 -118.503956 267 3062ft 217kts
02-Jul-18 18:34 33.936436 -118.578998 265 4909ft 258kts
02-Jul-18 18:35 33.894123 -118.637380 185 7556ft 283kts
02-Jul-18 18:35 33.830529 -118.626592 150 9848ft 295kts
02-Jul-18 18:36 33.758490 -118.569667 146 11975ft 325kts
02-Jul-18 18:37 33.691798 -118.496520 113 14345ft 337kts
02-Jul-18 18:38 33.659175 -118.390109 109 16485ft 347kts
02-Jul-18 18:39 33.644273 -118.279659 89 18291ft 356kts
02-Jul-18 18:40 33.644316 -118.164268 89 19884ft 365kts
02-Jul-18 18:41 33.644280 -118.042035 89 21363ft 373kts
02-Jul-18 18:42 33.644131 -117.926632 89 22585ft 380kts
02-Jul-18 18:43 33.643908 -117.824884 89 23543ft 385kts
02-Jul-18 18:44 33.660509 -117.701799 75 24570ft 391kts
02-Jul-18 18:45 33.685539 -117.574115 76 25535ft 397kts
02-Jul-18 18:46 33.709111 -117.452019 76 26369ft 402kts
02-Jul-18 18:47 33.732508 -117.329647 76 27113ft 407kts
02-Jul-18 18:48 33.750547 -117.212445 89 27714ft 412kts
02-Jul-18 18:49 33.748822 -117.100998 90 28267ft 416kts
02-Jul-18 18:50 33.745960 -116.965010 90 28895ft 419kts
02-Jul-18 18:51 33.742906 -116.827359 90 29638ft 417kts
02-Jul-18 18:52 33.739894 -116.697929 90 30250ft 416kts
02-Jul-18 18:53 33.736582 -116.561760 90 30800ft 415kts
02-Jul-18 18:54 33.733020 -116.421402 90 30802ft 429kts
02-Jul-18 18:55 33.729568 -116.290998 91 30780ft 442kts
02-Jul-18 18:56 33.726398 -116.175719 91 30755ft 453kts
02-Jul-18 18:57 33.737320 -116.025328 71 30750ft 460kts
02-Jul-18 18:58 33.777100 -115.879855 71 30743ft 458kts
02-Jul-18 18:59 33.816464 -115.734462 71 30743ft 459kts
02-Jul-18 19:00 33.855668 -115.589006 71 30743ft 458kts
02-Jul-18 19:01 33.895021 -115.443287 71 30742ft 458kts
02-Jul-18 19:02 33.932166 -115.306210 71 30764ft 458kts
02-Jul-18 19:03 33.968881 -115.171186 71 30780ft 459kts
02-Jul-18 19:04 34.008578 -115.025736 71 30779ft 457kts
02-Jul-18 19:05 34.048226 -114.881024 70 30779ft 456kts
02-Jul-18 19:06 34.088155 -114.735810 70 30779ft 456kts
02-Jul-18 19:07 34.111684 -114.591457 84 30791ft 458kts
02-Jul-18 19:08 34.122388 -114.440494 83 30798ft 457kts
02-Jul-18 19:09 34.131321 -114.322140 84 30799ft 456kts
02-Jul-18 19:10 34.141285 -114.192756 84 30799ft 457kts
02-Jul-18 19:11 34.153041 -114.040426 84 30799ft 456kts
02-Jul-18 19:12 34.162607 -113.891570 85 30799ft 456kts
02-Jul-18 19:13 34.171188 -113.739042 85 30798ft 456kts
02-Jul-18 19:14 34.179788 -113.586229 85 30798ft 456kts
02-Jul-18 19:15 34.188535 -113.433860 85 30860ft 455kts
02-Jul-18 19:16 34.197028 -113.288835 85 31016ft 456kts
02-Jul-18 19:17 34.206108 -113.136838 85 31063ft 456kts
02-Jul-18 19:18 34.214357 -113.001343 85 31078ft 456kts
02-Jul-18 19:19 34.216641 -112.964215 85 31083ft 456kts
02-Jul-18 19:20 34.225102 -112.828435 84 31101ft 465kts
02-Jul-18 19:21 34.234967 -112.672859 84 31121ft 466kts
02-Jul-18 19:22 34.244822 -112.520277 84 31129ft 467kts
02-Jul-18 19:23 34.255077 -112.364403 84 31128ft 466kts
02-Jul-18 19:24 34.265411 -112.210285 84 31127ft 467kts
02-Jul-18 19:25 34.275976 -112.055362 84 31128ft 466kts
02-Jul-18 19:26 34.286809 -111.899194 84 31138ft 466kts
02-Jul-18 19:27 34.297784 -111.743564 84 31145ft 466kts
02-Jul-18 19:28 34.308862 -111.588937 84 31155ft 466kts
02-Jul-18 19:29 34.320194 -111.433132 83 31156ft 466kts
02-Jul-18 19:30 34.331041 -111.278088 85 31155ft 466kts
02-Jul-18 19:31 34.338873 -111.122137 85 31155ft 466kts
02-Jul-18 19:32 34.346779 -110.964849 86 31157ft 477kts
02-Jul-18 19:33 34.354938 -110.805031 88 31146ft 473kts
02-Jul-18 19:34 34.362466 -110.646096 88 31116ft 475kts
02-Jul-18 19:35 34.369944 -110.487082 88 31172ft 474kts
02-Jul-18 19:36 34.376792 -110.330322 89 31227ft 474kts
02-Jul-18 19:37 34.382925 -110.174109 89 31227ft 474kts
02-Jul-18 19:38 34.388985 -110.015154 89 31227ft 474kts
02-Jul-18 19:39 34.395159 -109.855960 89 31208ft 474kts
02-Jul-18 19:40 34.401497 -109.697025 88 31129ft 474kts
02-Jul-18 19:41 34.408051 -109.537271 88 31110ft 475kts
02-Jul-18 19:42 34.414765 -109.378044 88 31110ft 475kts
02-Jul-18 19:43 34.421406 -109.224941 88 31108ft 474kts
02-Jul-18 19:44 34.427312 -109.067612 91 31109ft 475kts
02-Jul-18 19:45 34.426333 -108.907762 93 31124ft 474kts
02-Jul-18 19:46 34.424340 -108.748740 93 31207ft 474kts
02-Jul-18 19:47 34.422575 -108.589264 93 31241ft 475kts
02-Jul-18 19:48 34.421017 -108.429411 93 31244ft 474kts
02-Jul-18 19:49 34.419785 -108.283689 93 31213ft 474kts
02-Jul-18 19:50 34.418634 -108.124829 93 31200ft 474kts
02-Jul-18 19:51 34.417681 -107.965042 93 31200ft 474kts
02-Jul-18 19:52 34.421307 -107.805479 90 31201ft 475kts
02-Jul-18 19:53 34.426814 -107.645301 90 31151ft 476kts
02-Jul-18 19:54 34.432091 -107.485727 90 31076ft 475kts
02-Jul-18 19:55 34.437132 -107.326835 90 31055ft 476kts
02-Jul-18 19:56 34.442013 -107.167500 90 31045ft 475kts
02-Jul-18 19:57 34.446716 -107.007038 91 31045ft 476kts
02-Jul-18 19:58 34.451229 -106.847305 92 31050ft 478kts
02-Jul-18 19:59 34.455521 -106.687036 93 31054ft 476kts
02-Jul-18 20:01 34.459565 -106.526811 93 31052ft 476kts
02-Jul-18 20:02 34.463390 -106.366720 93 31053ft 476kts
02-Jul-18 20:03 34.466978 -106.207617 92 31077ft 477kts
02-Jul-18 20:04 34.470420 -106.047331 92 31088ft 476kts
02-Jul-18 20:05 34.473640 -105.887304 92 31179ft 476kts
02-Jul-18 20:06 34.476641 -105.727590 92 31235ft 476kts
02-Jul-18 20:07 34.479433 -105.567603 92 31259ft 475kts
02-Jul-18 20:08 34.482009 -105.407745 92 31206ft 474kts
02-Jul-18 20:09 34.484372 -105.248915 93 31182ft 475kts
02-Jul-18 20:10 34.486560 -105.088976 93 31182ft 474kts
02-Jul-18 20:11 34.488537 -104.930028 93 31183ft 470kts
02-Jul-18 20:12 34.490282 -104.772017 93 31184ft 470kts
02-Jul-18 20:13 34.491817 -104.613713 93 31183ft 469kts
02-Jul-18 20:14 34.493139 -104.456112 93 31183ft 470kts
02-Jul-18 20:15 34.494262 -104.298351 94 31182ft 469kts
02-Jul-18 20:16 34.495193 -104.141431 94 31183ft 469kts
02-Jul-18 20:17 34.495923 -103.983609 94 31144ft 468kts
02-Jul-18 20:18 34.496442 -103.826467 94 31124ft 469kts
02-Jul-18 20:19 34.496759 -103.668258 94 31128ft 469kts
02-Jul-18 20:20 34.496872 -103.510476 94 31129ft 469kts
02-Jul-18 20:21 34.496780 -103.352411 94 31129ft 469kts
02-Jul-18 20:22 34.496509 -103.196742 94 31127ft 469kts
02-Jul-18 20:23 34.495959 -103.037585 93 31128ft 477kts
02-Jul-18 20:24 34.495294 -102.876907 92 31128ft 475kts
02-Jul-18 20:25 34.483780 -102.718340 99 31129ft 474kts
02-Jul-18 20:26 34.467171 -102.560131 99 31181ft 473kts
02-Jul-18 20:27 34.450467 -102.402202 99 31221ft 473kts
02-Jul-18 20:28 34.433671 -102.244725 99 31218ft 472kts
02-Jul-18 20:29 34.416809 -102.088250 99 31184ft 473kts
02-Jul-18 20:30 34.399596 -101.930342 99 31147ft 473kts
02-Jul-18 20:31 34.382176 -101.772424 99 31146ft 473kts
02-Jul-18 20:32 34.364618 -101.615088 99 31147ft 473kts
02-Jul-18 20:33 34.346825 -101.457507 99 31147ft 473kts
02-Jul-18 20:34 34.328869 -101.300273 100 31144ft 473kts
02-Jul-18 20:35 34.310735 -101.143078 100 31145ft 473kts
02-Jul-18 20:36 34.292339 -100.985453 100 31128ft 473kts
02-Jul-18 20:37 34.273923 -100.829456 99 31045ft 468kts
02-Jul-18 20:38 34.255458 -100.674680 99 31019ft 467kts
02-Jul-18 20:39 34.236707 -100.519188 99 31018ft 467kts
02-Jul-18 20:40 34.217777 -100.363904 99 31019ft 467kts
02-Jul-18 20:41 34.197398 -100.209301 103 31018ft 466kts
02-Jul-18 20:42 34.169903 -100.056872 103 31017ft 466kts
02-Jul-18 20:43 34.142159 -99.904070 103 31017ft 466kts
02-Jul-18 20:44 34.114393 -99.751856 103 31006ft 467kts
02-Jul-18 20:45 34.086392 -99.599249 103 30971ft 467kts
02-Jul-18 20:46 34.058175 -99.446467 103 30963ft 467kts
02-Jul-18 20:47 34.030161 -99.295779 104 30961ft 466kts
02-Jul-18 20:48 33.990775 -99.147688 112 30962ft 465kts
02-Jul-18 20:49 33.944681 -99.002530 112 30977ft 467kts
02-Jul-18 20:50 33.898960 -98.858261 111 31006ft 461kts
02-Jul-18 20:51 33.868910 -98.763586 111 31010ft 464kts
02-Jul-18 20:52 33.824646 -98.624496 111 31009ft 462kts
02-Jul-18 20:53 33.779719 -98.483806 111 28976ft 443kts
02-Jul-18 20:54 33.737069 -98.349998 111 26783ft 423kts
02-Jul-18 20:55 33.716944 -98.287019 112 25721ft 417kts
02-Jul-18 20:55 33.683081 -98.181315 112 23904ft 406kts
02-Jul-18 20:56 33.643360 -98.057780 112 21709ft 392kts
02-Jul-18 20:57 33.605107 -97.939268 112 19533ft 380kts
02-Jul-18 20:58 33.567588 -97.823470 112 17344ft 370kts
02-Jul-18 20:59 33.530767 -97.710245 112 15151ft 362kts
02-Jul-18 21:00 33.495089 -97.600906 112 13444ft 345kts
02-Jul-18 21:01 33.460281 -97.494618 111 11845ft 339kts
02-Jul-18 21:02 33.446604 -97.385183 92 10256ft 332kts
02-Jul-18 21:03 33.442849 -97.280155 93 9608ft 292kts
02-Jul-18 21:04 33.439531 -97.190197 93 9233ft 259kts
02-Jul-18 21:05 33.436314 -97.105946 93 8470ft 250kts
02-Jul-18 21:06 33.396488 -97.052780 178 7728ft 238kts
02-Jul-18 21:07 33.332805 -97.056260 183 6696ft 228kts
02-Jul-18 21:08 33.271552 -97.060903 183 5610ft 223kts
02-Jul-18 21:09 33.213103 -97.057830 148 4985ft 213kts
02-Jul-18 21:10 33.165998 -97.016038 143 4597ft 211kts
02-Jul-18 21:11 33.120259 -96.973636 143 4194ft 208kts
02-Jul-18 21:12 33.075120 -96.931388 143 4034ft 209kts
02-Jul-18 21:13 33.023833 -96.914555 184 3817ft 195kts
02-Jul-18 21:14 32.973821 -96.929056 193 2904ft 179kts
02-Jul-18 21:15 32.928003 -96.931143 159 1826ft 151kts
02-Jul-18 21:16 32.897340 -96.903279 136 1607ft 141kts
02-Jul-18 21:17 32.869729 -96.871236 136 868ft 137kts
02-Jul-18 21:18 32.848037 -96.846099 137 493ft 13kts
02-Jul-18 21:19 32.846674 -96.847139 146 493ft 14kts
02-Jul-18 21:20 32.845556 -96.847496 324 493ft 0kts

Navigation Log

Ident Type
Flight plan parsing failed, navigation log unavailable